Norfolk Island, Norfolk Island Airport (YSNF)

NameNorfolk Island Airport
CityNorfolk Island
CountryNorfolk Island
ICAOYSNF
IATANLK
Altitude113 m
CoordinatesGoogle Map
Live Air TrafficLiveATC.net
METARYSNF 251730Z AUTO 11005KT 9999 // SCT027 18/13 Q1020 RF00.0/000.0
2020-04-25 17:30:00 Wind: East (110°) 2.57 m/s - Visibility: > 10000 m - Temperature: 18 °C - Dew point: 13 °C - Humidity: 72.7% - Pressure: 1020 hPa
Statistics

The table below shows the detailed information of all flights to/from Norfolk Island, Norfolk Island Airport (YSNF).